Time;durP1;ratioP1;P1;durP2;ratioP2;P2;SDS_P1;SDS_P2;PMS_P1;PMS_P2;Temp;Humidity;BMP_temperature;BMP_pressure;BME280_temperature;BME280_humidity;BME280_pressure;Samples;Min_cycle;Max_cycle;Signal;HPM_P1;HPM_P2
2022/04/09 00:00:13;;;;;;;3.37;2.00;;;4.00;99.90;;;;;;5073738;28;20208;-68
2022/04/09 00:02:39;;;;;;;3.83;1.87;;;4.00;99.90;;;;;;5070464;28;20192;-67
2022/04/09 00:05:05;;;;;;;2.43;1.97;;;4.10;99.90;;;;;;5076471;28;20189;-68
2022/04/09 00:07:31;;;;;;;3.93;1.77;;;4.10;99.90;;;;;;5066600;28;20185;-68
2022/04/09 00:09:57;;;;;;;4.13;1.80;;;4.00;99.90;;;;;;5066670;28;20212;-68
2022/04/09 00:12:22;;;;;;;2.33;2.10;;;4.00;99.90;;;;;;5066267;28;20637;-67
2022/04/09 00:14:48;;;;;;;2.90;2.40;;;3.90;99.90;;;;;;5073315;28;20273;-66
2022/04/09 00:17:13;;;;;;;6.70;2.00;;;3.80;99.90;;;;;;5071242;28;20182;-67
2022/04/09 00:19:39;;;;;;;2.37;1.87;;;3.70;99.90;;;;;;5072631;28;20284;-67
2022/04/09 00:22:05;;;;;;;5.13;2.53;;;3.80;99.90;;;;;;5076629;28;20186;-68
2022/04/09 00:24:30;;;;;;;2.53;1.90;;;3.80;99.90;;;;;;5074100;28;20220;-67
2022/04/09 00:26:56;;;;;;;6.03;2.93;;;3.80;99.90;;;;;;5068952;28;20204;-69
2022/04/09 00:29:21;;;;;;;4.50;2.37;;;3.80;99.90;;;;;;5076144;28;20271;-66
2022/04/09 00:31:48;;;;;;;3.77;2.37;;;3.80;99.90;;;;;;5067871;28;20208;-68
2022/04/09 00:34:13;;;;;;;4.03;2.83;;;3.90;99.90;;;;;;5071849;28;20174;-66
2022/04/09 00:36:39;;;;;;;4.33;2.47;;;3.90;99.90;;;;;;5079786;28;20214;-69
2022/04/09 00:39:04;;;;;;;3.80;2.20;;;3.90;99.90;;;;;;5069210;28;20251;-67
2022/04/09 00:41:30;;;;;;;3.60;2.00;;;3.80;99.90;;;;;;5064763;28;20220;-67
2022/04/09 00:43:56;;;;;;;4.33;2.67;;;3.90;99.90;;;;;;5071335;28;20251;-68
2022/04/09 00:46:21;;;;;;;5.63;2.00;;;3.80;99.90;;;;;;5065233;28;20648;-68
2022/04/09 00:48:48;;;;;;;5.03;2.50;;;3.90;99.90;;;;;;5066223;28;20205;-68
2022/04/09 00:51:13;;;;;;;3.67;2.17;;;4.00;99.90;;;;;;5063485;28;20568;-68
2022/04/09 00:53:42;;;;;;;3.83;2.03;;;4.10;99.90;;;;;;5069134;28;20197;-69
2022/04/09 00:56:15;;;;;;;3.50;2.10;;;4.10;99.90;;;;;;5064978;28;20181;-68
2022/04/09 00:58:47;;;;;;;4.43;2.10;;;4.10;99.90;;;;;;5064491;28;20743;-67
2022/04/09 01:01:14;;;;;;;4.47;2.00;;;4.00;99.90;;;;;;5064555;28;20201;-67
2022/04/09 01:03:41;;;;;;;2.47;1.67;;;3.90;99.90;;;;;;5069254;28;20190;-69
2022/04/09 01:06:09;;;;;;;3.67;1.97;;;3.80;99.90;;;;;;5063985;28;20177;-70
2022/04/09 01:08:34;;;;;;;3.50;1.60;;;3.90;99.90;;;;;;5063889;28;20202;-68
2022/04/09 01:11:00;;;;;;;3.20;1.97;;;3.90;99.90;;;;;;5064829;28;20656;-66
2022/04/09 01:13:26;;;;;;;3.83;1.90;;;3.90;99.90;;;;;;5068428;28;20185;-66
2022/04/09 01:15:51;;;;;;;3.60;1.70;;;4.00;99.90;;;;;;5072471;28;20243;-68
2022/04/09 01:18:18;;;;;;;4.97;1.80;;;4.10;99.90;;;;;;5063621;28;20209;-67
2022/04/09 01:20:44;;;;;;;3.37;1.50;;;4.10;99.90;;;;;;5064649;28;20744;-66
2022/04/09 01:23:09;;;;;;;3.30;1.60;;;4.10;99.90;;;;;;5064402;28;20213;-67
2022/04/09 01:25:37;;;;;;;5.70;2.03;;;4.10;99.90;;;;;;5064268;28;20177;-69
2022/04/09 01:28:04;;;;;;;2.90;1.33;;;4.10;99.90;;;;;;5062190;28;20547;-69
2022/04/09 01:30:30;;;;;;;3.67;1.47;;;4.20;99.90;;;;;;5064664;28;20196;-68
2022/04/09 01:32:55;;;;;;;1.90;1.40;;;4.30;99.90;;;;;;5064084;28;20549;-67
2022/04/09 01:35:21;;;;;;;2.57;1.83;;;4.30;99.90;;;;;;5064627;28;20222;-70
2022/04/09 01:37:48;;;;;;;4.67;1.67;;;4.20;99.90;;;;;;5063003;28;20298;-68
2022/04/09 01:40:47;;;;;;;4.47;1.57;;;4.30;99.90;;;;;;5064703;28;20289;-67
2022/04/09 01:43:13;;;;;;;3.90;1.97;;;4.30;99.90;;;;;;5063894;28;20178;-68
2022/04/09 01:45:39;;;;;;;5.00;1.93;;;4.30;99.90;;;;;;5067155;28;20193;-70
2022/04/09 01:48:04;;;;;;;2.70;1.30;;;4.30;99.90;;;;;;5067069;28;20272;-67
2022/04/09 01:50:30;;;;;;;6.57;1.50;;;4.30;99.90;;;;;;5068485;28;20185;-66
2022/04/09 01:52:56;;;;;;;3.90;1.57;;;4.30;99.90;;;;;;5067666;28;20197;-67
2022/04/09 01:55:22;;;;;;;3.27;1.50;;;4.40;99.90;;;;;;5068484;28;20564;-68
2022/04/09 01:57:49;;;;;;;4.93;1.30;;;4.40;99.90;;;;;;5073902;28;20190;-68
2022/04/09 02:00:16;;;;;;;6.33;1.63;;;4.40;99.90;;;;;;5079794;28;20189;-68
2022/04/09 02:02:43;;;;;;;4.00;1.50;;;4.30;99.90;;;;;;5072034;28;20201;-68
2022/04/09 02:05:13;;;;;;;3.03;1.30;;;4.30;99.90;;;;;;5072728;28;20272;-66
2022/04/09 02:07:39;;;;;;;4.33;1.30;;;4.20;99.90;;;;;;5074732;28;20272;-68
2022/04/09 02:10:06;;;;;;;4.40;1.50;;;4.20;99.90;;;;;;5067569;28;20541;-68
2022/04/09 02:12:33;;;;;;;5.30;1.50;;;4.20;99.90;;;;;;5066127;28;20188;-67
2022/04/09 02:15:01;;;;;;;3.50;1.40;;;4.20;99.90;;;;;;5067876;28;20189;-68
2022/04/09 02:17:27;;;;;;;2.23;1.30;;;4.20;99.90;;;;;;5066918;28;20296;-69
2022/04/09 02:19:53;;;;;;;2.73;1.40;;;4.10;99.90;;;;;;5067748;28;20697;-68
2022/04/09 02:22:19;;;;;;;4.00;1.30;;;4.10;99.90;;;;;;5067786;28;20174;-66
2022/04/09 02:24:46;;;;;;;4.60;1.37;;;4.10;99.90;;;;;;5067415;28;20263;-69
2022/04/09 02:27:12;;;;;;;4.77;1.40;;;4.10;99.90;;;;;;5066984;28;20185;-67
2022/04/09 02:29:38;;;;;;;4.30;1.37;;;4.10;99.90;;;;;;5065614;28;20201;-66
2022/04/09 02:32:05;;;;;;;3.17;1.30;;;4.20;99.90;;;;;;5067646;28;20174;-66
2022/04/09 02:34:31;;;;;;;2.13;1.23;;;4.10;99.90;;;;;;5067435;28;20224;-67
2022/04/09 02:36:56;;;;;;;4.87;1.40;;;4.20;99.90;;;;;;5066762;28;20197;-67
2022/04/09 02:39:22;;;;;;;7.83;1.97;;;4.20;99.90;;;;;;5067199;28;20214;-68
2022/04/09 02:41:50;;;;;;;2.80;0.90;;;4.20;99.90;;;;;;5067366;28;20235;-68
2022/04/09 02:44:17;;;;;;;4.13;1.53;;;4.20;99.90;;;;;;5066944;28;20181;-67
2022/04/09 02:46:44;;;;;;;3.40;1.23;;;4.20;99.90;;;;;;5066710;28;20209;-66
2022/04/09 02:49:09;;;;;;;3.50;1.30;;;4.20;99.90;;;;;;5066339;28;20669;-67
2022/04/09 02:51:35;;;;;;;6.13;2.17;;;4.30;99.90;;;;;;5067085;28;20188;-69
2022/04/09 02:54:00;;;;;;;3.67;1.57;;;4.40;99.90;;;;;;5066755;28;20204;-67
2022/04/09 02:56:26;;;;;;;2.83;1.27;;;4.30;99.90;;;;;;5065232;28;20181;-66
2022/04/09 02:58:52;;;;;;;8.93;1.60;;;4.30;99.90;;;;;;5070055;28;20208;-68
2022/04/09 03:01:17;;;;;;;6.87;2.00;;;4.30;99.90;;;;;;5075051;28;20205;-66
2022/04/09 03:03:43;;;;;;;3.10;1.67;;;4.30;99.90;;;;;;5070094;28;20220;-68
2022/04/09 03:06:08;;;;;;;4.67;1.47;;;4.30;99.90;;;;;;5065998;28;20196;-68
2022/04/09 03:08:34;;;;;;;4.13;1.50;;;4.30;99.90;;;;;;5067999;28;20296;-68
2022/04/09 03:11:00;;;;;;;3.43;1.60;;;4.30;99.90;;;;;;5066688;28;20189;-66
2022/04/09 03:13:25;;;;;;;2.47;1.57;;;4.20;99.90;;;;;;5066142;28;20182;-67
2022/04/09 03:15:51;;;;;;;7.77;1.80;;;4.20;99.90;;;;;;5066652;28;20189;-68
2022/04/09 03:18:16;;;;;;;11.27;2.53;;;4.10;99.90;;;;;;5065340;28;20262;-67
2022/04/09 03:20:42;;;;;;;4.20;1.47;;;4.10;99.90;;;;;;5066168;28;20338;-67
2022/04/09 03:23:08;;;;;;;5.87;1.40;;;4.10;99.90;;;;;;5066155;28;20645;-66
2022/04/09 03:25:33;;;;;;;3.67;1.50;;;4.10;99.90;;;;;;5066431;28;20193;-67
2022/04/09 03:27:59;;;;;;;5.83;2.47;;;4.10;99.90;;;;;;5063398;28;20186;-68
2022/04/09 03:30:25;;;;;;;2.57;1.60;;;4.10;99.90;;;;;;5068768;28;20182;-67
2022/04/09 03:32:51;;;;;;;7.53;2.07;;;4.20;99.90;;;;;;5065930;28;20190;-66
2022/04/09 03:35:16;;;;;;;3.50;1.50;;;4.10;99.90;;;;;;5071900;28;20598;-67
2022/04/09 03:37:42;;;;;;;3.03;1.70;;;4.00;99.90;;;;;;5064940;28;20708;-67
2022/04/09 03:40:08;;;;;;;4.03;1.50;;;4.00;99.90;;;;;;5064419;28;20234;-66
2022/04/09 03:42:34;;;;;;;4.70;1.50;;;4.00;99.90;;;;;;5065382;28;20181;-70
2022/04/09 03:45:00;;;;;;;2.63;1.60;;;3.80;99.90;;;;;;5066141;28;20271;-67
2022/04/09 03:47:26;;;;;;;1.90;1.70;;;3.80;99.90;;;;;;5063129;28;20174;-67
2022/04/09 03:49:52;;;;;;;3.30;1.60;;;3.80;99.90;;;;;;5072068;28;20198;-67
2022/04/09 03:52:17;;;;;;;3.97;2.03;;;3.80;99.90;;;;;;5065384;28;20174;-68
2022/04/09 03:54:43;;;;;;;4.10;1.97;;;3.90;99.90;;;;;;5066779;28;20184;-68
2022/04/09 03:57:11;;;;;;;3.63;1.60;;;3.90;99.90;;;;;;5072504;28;20185;-68
2022/04/09 03:59:37;;;;;;;2.83;1.67;;;3.90;99.90;;;;;;5070677;28;20194;-67
2022/04/09 04:02:03;;;;;;;4.47;1.80;;;3.90;99.90;;;;;;5065395;28;20212;-68
2022/04/09 04:04:29;;;;;;;3.43;1.77;;;3.90;99.90;;;;;;5065156;28;20263;-68
2022/04/09 04:06:54;;;;;;;3.20;1.57;;;3.80;99.90;;;;;;5063512;28;20272;-68
2022/04/09 04:09:20;;;;;;;4.70;1.53;;;3.80;99.90;;;;;;5064768;28;20211;-67
2022/04/09 04:11:46;;;;;;;5.20;1.77;;;3.80;99.90;;;;;;5065236;28;20715;-68
2022/04/09 04:14:12;;;;;;;5.77;1.77;;;3.80;99.90;;;;;;5069613;28;20181;-68
2022/04/09 04:16:38;;;;;;;6.40;2.57;;;3.90;99.90;;;;;;5076056;28;20253;-66
2022/04/09 04:19:04;;;;;;;3.43;2.00;;;3.90;99.90;;;;;;5073652;28;20569;-66
2022/04/09 04:21:30;;;;;;;2.57;1.47;;;4.00;99.90;;;;;;5077609;28;20216;-65
2022/04/09 04:23:55;;;;;;;8.27;2.27;;;3.90;99.90;;;;;;5074820;28;20693;-67
2022/04/09 04:26:21;;;;;;;5.43;1.70;;;3.80;99.90;;;;;;5077249;28;20177;-67
2022/04/09 04:28:48;;;;;;;5.07;1.70;;;3.80;99.90;;;;;;5074856;28;20209;-70
2022/04/09 04:31:17;;;;;;;3.67;1.80;;;3.60;99.90;;;;;;5078153;28;20209;-67
2022/04/09 04:33:42;;;;;;;4.00;1.60;;;3.60;99.90;;;;;;5078583;28;20204;-66
2022/04/09 04:36:08;;;;;;;3.93;1.57;;;3.60;99.90;;;;;;5077127;28;20216;-67
2022/04/09 04:38:34;;;;;;;5.13;1.70;;;3.70;99.90;;;;;;5074515;28;20224;-68
2022/04/09 04:41:01;;;;;;;3.33;1.70;;;3.80;99.90;;;;;;5077492;28;20223;-67
2022/04/09 04:43:26;;;;;;;8.10;1.70;;;3.90;99.90;;;;;;5080392;28;20229;-66
2022/04/09 04:45:52;;;;;;;4.27;1.80;;;3.90;99.90;;;;;;5079077;28;20184;-67
2022/04/09 04:48:20;;;;;;;6.50;2.17;;;4.00;99.90;;;;;;5071270;28;20193;-66
2022/04/09 04:50:46;;;;;;;4.40;1.77;;;4.00;99.90;;;;;;5073849;28;20189;-67
2022/04/09 04:53:12;;;;;;;4.83;1.70;;;4.10;99.90;;;;;;5071753;28;20181;-70
2022/04/09 04:55:37;;;;;;;3.50;1.70;;;4.20;99.90;;;;;;5080266;28;20326;-66
2022/04/09 04:58:03;;;;;;;4.83;2.03;;;4.10;99.90;;;;;;5076651;28;20659;-67
2022/04/09 05:00:29;;;;;;;3.00;1.70;;;4.20;99.90;;;;;;5074701;28;20193;-68
2022/04/09 05:02:56;;;;;;;3.10;1.57;;;4.20;99.90;;;;;;5069223;28;20180;-67
2022/04/09 05:05:22;;;;;;;6.67;1.67;;;4.20;99.90;;;;;;5072583;28;20207;-67
2022/04/09 05:07:49;;;;;;;3.60;1.43;;;4.30;99.90;;;;;;5067073;28;20580;-67
2022/04/09 05:10:17;;;;;;;1.73;1.57;;;4.30;99.90;;;;;;5075166;28;20279;-67
2022/04/09 05:12:43;;;;;;;4.83;1.40;;;4.40;99.90;;;;;;5077125;28;20192;-66
2022/04/09 05:15:11;;;;;;;4.63;1.60;;;4.40;99.90;;;;;;5076568;28;20185;-66
2022/04/09 05:17:37;;;;;;;2.40;1.33;;;4.40;99.90;;;;;;5072086;28;20216;-67
2022/04/09 05:20:05;;;;;;;5.67;1.60;;;4.50;99.90;;;;;;5074286;28;20236;-67
2022/04/09 05:22:31;;;;;;;2.50;1.20;;;4.50;99.90;;;;;;5074337;28;20283;-69
2022/04/09 05:24:58;;;;;;;6.93;1.40;;;4.60;99.90;;;;;;5075470;28;20173;-68
2022/04/09 05:27:24;;;;;;;2.60;1.10;;;4.60;99.90;;;;;;5070187;28;20186;-69
2022/04/09 05:29:50;;;;;;;3.77;1.43;;;4.60;99.90;;;;;;5078764;28;21109;-69
2022/04/09 05:32:16;;;;;;;1.50;1.20;;;4.60;99.90;;;;;;5076523;28;20620;-69
2022/04/09 05:34:41;;;;;;;3.00;1.40;;;4.60;99.90;;;;;;5073897;28;20280;-67
2022/04/09 05:37:07;;;;;;;3.20;0.97;;;4.60;99.90;;;;;;5075014;28;20185;-66
2022/04/09 05:39:32;;;;;;;5.43;1.47;;;4.60;99.90;;;;;;5070892;28;20296;-66
2022/04/09 05:41:58;;;;;;;2.77;1.40;;;4.60;99.90;;;;;;5074550;28;20213;-66
2022/04/09 05:44:24;;;;;;;3.30;1.40;;;4.60;99.90;;;;;;5069104;28;20621;-66
2022/04/09 05:46:49;;;;;;;4.20;1.73;;;4.70;99.90;;;;;;5072414;28;20186;-67
2022/04/09 05:49:15;;;;;;;3.50;1.30;;;4.70;99.90;;;;;;5076125;28;20197;-67
2022/04/09 05:51:41;;;;;;;3.10;1.47;;;4.80;99.90;;;;;;5075662;28;20239;-67
2022/04/09 05:54:06;;;;;;;2.17;1.13;;;4.80;99.90;;;;;;5074210;28;20327;-67
2022/04/09 05:56:32;;;;;;;3.17;1.00;;;4.90;99.90;;;;;;5072039;28;20181;-68
2022/04/09 05:58:58;;;;;;;3.23;1.13;;;5.00;99.90;;;;;;5074586;28;20200;-67
2022/04/09 06:01:24;;;;;;;1.87;1.00;;;5.00;99.90;;;;;;5075560;28;20684;-67
2022/04/09 06:03:50;;;;;;;4.10;1.10;;;5.10;99.90;;;;;;5075026;28;20181;-67
2022/04/09 06:06:15;;;;;;;3.23;1.10;;;5.20;99.90;;;;;;5075036;28;20214;-67
2022/04/09 06:08:41;;;;;;;3.80;1.07;;;5.30;99.90;;;;;;5073230;28;20284;-66
2022/04/09 06:11:08;;;;;;;3.90;1.17;;;5.40;99.90;;;;;;5074870;28;20182;-66
2022/04/09 06:13:34;;;;;;;2.60;1.10;;;5.50;99.90;;;;;;5077365;28;20178;-67
2022/04/09 06:16:05;;;;;;;3.37;1.10;;;5.50;99.90;;;;;;5081549;28;20195;-67
2022/04/09 06:18:31;;;;;;;2.27;1.17;;;5.50;99.90;;;;;;5073693;28;20579;-69
2022/04/09 06:20:56;;;;;;;2.57;1.43;;;5.60;99.90;;;;;;5077201;28;20207;-66
2022/04/09 06:23:22;;;;;;;2.67;1.17;;;5.80;99.90;;;;;;5074494;28;20303;-66
2022/04/09 06:25:47;;;;;;;3.33;1.80;;;6.20;99.90;;;;;;5078152;28;20231;-67
2022/04/09 06:28:14;;;;;;;3.27;1.37;;;6.80;99.90;;;;;;5080805;28;20194;-66
2022/04/09 06:30:39;;;;;;;2.70;1.03;;;6.80;99.90;;;;;;5080225;28;20266;-67
2022/04/09 06:33:05;;;;;;;4.23;2.23;;;6.70;99.90;;;;;;5075905;28;20716;-66
2022/04/09 06:35:32;;;;;;;4.30;2.03;;;6.60;99.90;;;;;;5072077;28;20177;-67
2022/04/09 06:37:57;;;;;;;4.20;1.47;;;6.80;99.90;;;;;;5071513;28;20197;-66
2022/04/09 06:40:23;;;;;;;4.00;1.40;;;6.60;99.90;;;;;;5075229;28;20246;-66
2022/04/09 06:42:48;;;;;;;3.10;1.43;;;6.50;99.90;;;;;;5076370;28;20207;-68
2022/04/09 06:45:15;;;;;;;2.43;1.20;;;6.40;99.90;;;;;;5074843;28;20173;-66
2022/04/09 06:47:40;;;;;;;3.80;1.40;;;6.30;99.90;;;;;;5075249;28;20255;-67
2022/04/09 06:50:11;;;;;;;4.33;1.30;;;6.30;99.90;;;;;;5075091;28;20201;-67
2022/04/09 06:52:39;;;;;;;2.43;1.30;;;6.20;99.90;;;;;;5077303;28;20196;-67
2022/04/09 06:55:05;;;;;;;2.20;1.33;;;6.00;99.90;;;;;;5073397;28;20204;-67
2022/04/09 06:57:32;;;;;;;3.93;1.40;;;6.10;99.90;;;;;;5079321;28;20177;-67
2022/04/09 06:59:59;;;;;;;4.10;1.47;;;6.20;99.90;;;;;;5080136;28;20201;-66
2022/04/09 07:02:25;;;;;;;4.07;1.53;;;6.20;99.90;;;;;;5075913;28;20331;-67
2022/04/09 07:04:51;;;;;;;3.40;1.77;;;6.10;99.90;;;;;;5077224;28;20263;-69
2022/04/09 07:07:22;;;;;;;3.00;1.20;;;6.00;99.90;;;;;;5066652;28;20756;-67
2022/04/09 07:09:47;;;;;;;4.63;1.37;;;5.90;99.90;;;;;;5066625;28;20209;-67
2022/04/09 07:12:13;;;;;;;2.37;1.40;;;5.90;99.90;;;;;;5066257;28;20304;-66
2022/04/09 07:14:39;;;;;;;2.83;1.40;;;6.00;99.90;;;;;;5064495;28;20225;-66
2022/04/09 07:17:05;;;;;;;3.47;1.57;;;6.30;99.90;;;;;;5073508;28;20193;-66
2022/04/09 07:19:31;;;;;;;2.83;1.90;;;6.50;99.90;;;;;;5065606;28;20241;-68
2022/04/09 07:21:58;;;;;;;5.30;1.80;;;6.80;99.90;;;;;;5065780;28;20308;-67
2022/04/09 07:24:23;;;;;;;2.27;1.47;;;6.60;99.90;;;;;;5071750;28;20207;-67
2022/04/09 07:26:49;;;;;;;4.83;1.60;;;6.40;99.90;;;;;;5067632;28;20200;-68
2022/04/09 07:29:15;;;;;;;2.90;1.43;;;6.60;99.90;;;;;;5067047;28;20274;-66
2022/04/09 07:31:41;;;;;;;3.37;1.50;;;6.70;99.90;;;;;;5066237;28;20190;-68
2022/04/09 07:34:06;;;;;;;3.03;1.40;;;6.90;99.90;;;;;;5067093;28;20203;-68
2022/04/09 07:36:32;;;;;;;3.50;1.90;;;7.00;99.90;;;;;;5071471;28;20207;-67
2022/04/09 07:38:58;;;;;;;2.40;1.33;;;6.90;99.90;;;;;;5070529;28;20225;-66
2022/04/09 07:41:23;;;;;;;2.87;1.57;;;6.90;99.90;;;;;;5074863;28;20198;-67
2022/04/09 07:43:49;;;;;;;2.27;1.20;;;7.00;99.90;;;;;;5072303;28;20742;-66
2022/04/09 07:46:14;;;;;;;2.17;1.07;;;7.40;99.90;;;;;;5071943;28;20192;-67
2022/04/09 07:48:40;;;;;;;2.40;1.30;;;7.20;99.90;;;;;;5074719;28;20212;-68
2022/04/09 07:51:06;;;;;;;3.33;1.60;;;7.10;99.90;;;;;;5069412;28;20201;-66
2022/04/09 07:53:32;;;;;;;4.50;1.40;;;7.20;99.90;;;;;;5066344;28;20229;-68
2022/04/09 07:55:57;;;;;;;2.90;1.47;;;7.10;99.90;;;;;;5075565;28;20220;-66
2022/04/09 07:58:23;;;;;;;4.17;1.23;;;7.10;99.90;;;;;;5071574;28;20283;-66
2022/04/09 08:00:50;;;;;;;2.77;1.03;;;7.20;99.90;;;;;;5061793;28;20252;-69
2022/04/09 08:03:15;;;;;;;3.33;1.27;;;7.50;99.90;;;;;;5058869;28;20238;-67
2022/04/09 08:05:41;;;;;;;3.67;2.47;;;8.00;99.90;;;;;;5075035;28;20190;-67
2022/04/09 08:08:08;;;;;;;4.43;1.40;;;8.00;99.90;;;;;;5071945;28;20295;-67
2022/04/09 08:10:34;;;;;;;4.47;1.57;;;8.00;99.90;;;;;;5051519;28;20188;-68
2022/04/09 08:13:00;;;;;;;5.07;1.47;;;8.20;99.90;;;;;;5063855;28;20394;-67
2022/04/09 08:15:26;;;;;;;7.00;2.60;;;8.50;99.90;;;;;;5065219;28;20331;-68
2022/04/09 08:17:56;;;;;;;2.73;0.90;;;8.40;99.90;;;;;;5064874;28;20201;-67
2022/04/09 08:20:22;;;;;;;2.03;0.90;;;8.70;99.90;;;;;;5070558;28;20742;-69
2022/04/09 08:22:49;;;;;;;3.70;1.33;;;8.80;99.90;;;;;;5065760;28;20212;-66
2022/04/09 08:25:15;;;;;;;6.73;2.83;;;8.70;99.90;;;;;;5066871;28;20178;-67
2022/04/09 08:27:43;;;;;;;1.23;1.07;;;8.50;99.90;;;;;;5068682;28;20594;-67
2022/04/09 08:30:10;;;;;;;4.83;1.33;;;8.50;99.90;;;;;;5070570;28;20200;-65
2022/04/09 08:32:36;;;;;;;3.27;1.10;;;8.50;99.90;;;;;;5071522;28;20213;-67
2022/04/09 08:35:05;;;;;;;3.97;1.00;;;8.20;99.90;;;;;;5065001;28;20267;-67
2022/04/09 08:37:30;;;;;;;2.20;1.13;;;8.10;99.90;;;;;;5071920;28;20208;-67
2022/04/09 08:39:56;;;;;;;3.53;1.00;;;8.30;99.90;;;;;;5072112;28;20217;-68
2022/04/09 08:42:22;;;;;;;3.37;1.00;;;8.50;99.90;;;;;;5067132;28;20196;-68
2022/04/09 08:44:50;;;;;;;2.93;1.20;;;8.30;99.90;;;;;;5073952;28;20287;-67
2022/04/09 08:47:17;;;;;;;4.57;1.20;;;7.90;99.90;;;;;;5072593;28;20231;-69
2022/04/09 08:49:47;;;;;;;3.37;1.10;;;7.70;99.90;;;;;;5068909;28;20197;-67
2022/04/09 08:52:15;;;;;;;3.27;1.20;;;8.20;99.90;;;;;;5068657;28;20263;-67
2022/04/09 08:54:41;;;;;;;3.90;1.43;;;8.60;99.90;;;;;;5064597;28;20222;-67
2022/04/09 08:57:07;;;;;;;4.67;1.87;;;8.80;99.90;;;;;;5071341;28;20191;-67
2022/04/09 08:59:33;;;;;;;2.43;1.00;;;8.70;99.90;;;;;;5065485;28;20694;-67
2022/04/09 09:02:00;;;;;;;2.70;1.00;;;8.90;99.90;;;;;;5072246;28;20216;-67
2022/04/09 09:04:25;;;;;;;2.27;0.87;;;9.00;99.90;;;;;;5069432;28;20540;-67
2022/04/09 09:06:51;;;;;;;2.13;1.30;;;8.60;99.90;;;;;;5068284;28;20247;-66
2022/04/09 09:09:29;;;;;;;2.50;1.00;;;8.70;99.90;;;;;;5064559;28;20209;-69
2022/04/09 09:11:57;;;;;;;4.77;2.47;;;8.40;99.90;;;;;;5063029;28;20189;-67
2022/04/09 09:14:34;;;;;;;2.30;1.20;;;8.30;99.90;;;;;;5064495;28;20188;-66
2022/04/09 09:17:01;;;;;;;3.27;1.33;;;8.40;99.90;;;;;;5067421;28;20193;-69
2022/04/09 09:19:46;;;;;;;2.93;1.30;;;8.60;99.90;;;;;;5066447;28;20576;-67
2022/04/09 09:22:12;;;;;;;3.50;0.90;;;9.00;99.90;;;;;;5074422;28;20220;-67
2022/04/09 09:24:38;;;;;;;2.83;1.00;;;8.70;99.90;;;;;;5074046;28;20216;-69
2022/04/09 09:27:05;;;;;;;5.70;1.00;;;8.70;99.90;;;;;;5071765;28;20190;-65
2022/04/09 09:29:33;;;;;;;2.47;1.47;;;8.70;99.90;;;;;;5065007;28;20715;-69
2022/04/09 09:32:00;;;;;;;1.50;1.27;;;8.40;99.90;;;;;;5068733;28;20791;-67
2022/04/09 09:34:28;;;;;;;7.03;1.83;;;8.20;99.90;;;;;;5066627;28;21135;-67
2022/04/09 09:36:54;;;;;;;4.53;1.33;;;8.10;99.90;;;;;;5067873;28;20189;-67
2022/04/09 09:39:21;;;;;;;3.40;1.10;;;8.50;99.90;;;;;;5071017;28;20692;-68
2022/04/09 09:41:55;;;;;;;1.83;0.80;;;9.00;99.90;;;;;;5074478;28;20614;-65
2022/04/09 09:44:23;;;;;;;1.20;0.63;;;9.00;99.90;;;;;;5065803;28;20701;-69
2022/04/09 09:46:52;;;;;;;4.17;1.43;;;8.80;99.90;;;;;;5067512;28;20239;-69
2022/04/09 09:49:20;;;;;;;3.27;0.90;;;8.90;99.90;;;;;;5069947;28;20201;-68
2022/04/09 09:52:06;;;;;;;2.70;0.70;;;9.30;99.90;;;;;;5072336;28;20250;-69
2022/04/09 09:54:32;;;;;;;4.27;1.00;;;10.00;99.90;;;;;;5063284;28;20186;-69
2022/04/09 09:56:58;;;;;;;2.67;0.90;;;10.00;99.90;;;;;;5073312;28;20199;-68
2022/04/09 09:59:27;;;;;;;1.70;0.90;;;9.40;99.90;;;;;;5072221;28;20209;-70
2022/04/09 10:01:54;;;;;;;1.60;0.87;;;9.10;99.90;;;;;;5074115;28;20620;-69
2022/04/09 10:04:21;;;;;;;2.47;0.90;;;9.20;99.90;;;;;;5074491;28;20189;-68
2022/04/09 10:06:47;;;;;;;1.03;0.60;;;9.40;99.90;;;;;;5066481;28;20224;-68
2022/04/09 10:09:14;;;;;;;1.70;0.70;;;9.60;99.90;;;;;;5065520;28;20274;-68
2022/04/09 10:11:46;;;;;;;3.17;1.10;;;9.80;99.90;;;;;;5067162;28;20200;-69
2022/04/09 10:14:14;;;;;;;3.47;0.80;;;10.30;99.90;;;;;;5067553;28;20178;-68
2022/04/09 10:16:43;;;;;;;2.70;0.87;;;10.30;99.90;;;;;;5074098;28;20213;-68
2022/04/09 10:19:12;;;;;;;3.40;1.07;;;10.60;99.90;;;;;;5076000;28;20631;-68
2022/04/09 10:21:42;;;;;;;3.77;0.93;;;10.70;99.90;;;;;;5076190;28;20214;-68
2022/04/09 10:24:23;;;;;;;0.93;0.70;;;10.90;99.90;;;;;;5078088;28;20312;-68
2022/04/09 10:26:49;;;;;;;2.73;0.80;;;11.00;99.90;;;;;;5074542;28;21292;-68
2022/04/09 10:29:15;;;;;;;2.47;0.73;;;10.50;99.90;;;;;;5071089;28;20254;-68
2022/04/09 10:31:51;;;;;;;1.63;0.70;;;9.90;99.90;;;;;;5067660;28;21007;-69
2022/04/09 10:34:17;;;;;;;1.47;0.80;;;9.60;99.90;;;;;;5067236;28;20288;-68
2022/04/09 10:36:43;;;;;;;1.93;0.90;;;9.60;99.90;;;;;;5073360;28;20193;-70
2022/04/09 10:39:40;;;;;;;1.60;0.87;;;9.30;99.90;;;;;;5073022;28;21540;-69
2022/04/09 10:42:06;;;;;;;2.53;0.83;;;9.40;99.90;;;;;;5071490;28;20671;-68
2022/04/09 10:44:35;;;;;;;1.13;0.67;;;9.60;99.90;;;;;;5069083;28;20197;-69
2022/04/09 10:47:02;;;;;;;2.27;0.80;;;9.80;99.90;;;;;;5066267;28;20189;-68
2022/04/09 10:49:29;;;;;;;3.50;0.90;;;10.30;99.90;;;;;;5066783;28;20209;-68
2022/04/09 10:52:06;;;;;;;1.10;0.70;;;10.90;99.90;;;;;;5065669;28;20770;-68
2022/04/09 10:54:33;;;;;;;1.63;0.63;;;10.90;99.90;;;;;;5065367;28;20181;-68
2022/04/09 10:57:28;;;;;;;2.03;0.80;;;10.50;99.90;;;;;;5066012;28;20197;-70
2022/04/09 10:59:58;;;;;;;1.80;0.70;;;10.50;99.90;;;;;;5060422;28;20224;-68
2022/04/09 11:02:25;;;;;;;2.40;0.60;;;10.90;99.90;;;;;;5066744;28;20683;-68
2022/04/09 11:04:51;;;;;;;2.33;0.83;;;10.80;99.90;;;;;;5071416;28;20185;-70
2022/04/09 11:07:23;;;;;;;4.53;1.00;;;10.40;99.90;;;;;;5065926;28;21373;-68
2022/04/09 11:09:53;;;;;;;1.60;0.80;;;10.00;99.90;;;;;;5066409;28;20210;-68
2022/04/09 11:12:24;;;;;;;0.97;0.50;;;9.60;99.90;;;;;;5071781;28;20548;-69
2022/04/09 11:14:51;;;;;;;2.27;0.63;;;9.30;99.90;;;;;;5068879;28;20185;-69
2022/04/09 11:17:27;;;;;;;1.03;0.57;;;8.50;99.90;;;;;;5073035;28;20189;-69
2022/04/09 11:19:54;;;;;;;1.77;0.60;;;7.90;99.90;;;;;;5073289;28;20200;-68
2022/04/09 11:22:20;;;;;;;5.23;0.73;;;7.40;99.90;;;;;;5075058;28;20430;-69
2022/04/09 11:24:46;;;;;;;0.60;0.40;;;7.40;99.90;;;;;;5069870;28;20204;-70
2022/04/09 11:27:12;;;;;;;1.37;0.47;;;7.50;99.90;;;;;;5065374;28;20633;-69
2022/04/09 11:29:40;;;;;;;1.97;1.13;;;7.80;99.90;;;;;;5067556;28;20324;-70
2022/04/09 11:32:07;;;;;;;2.23;0.50;;;8.20;99.90;;;;;;5071519;28;20819;-68
2022/04/09 11:34:55;;;;;;;0.70;0.60;;;8.60;99.90;;;;;;5075859;28;20204;-72
2022/04/09 11:37:23;;;;;;;0.97;0.70;;;8.80;99.90;;;;;;5071999;28;20272;-68
2022/04/09 11:39:51;;;;;;;0.70;0.57;;;9.00;99.90;;;;;;5074661;28;20217;-69
2022/04/09 11:42:20;;;;;;;1.00;0.60;;;9.10;99.90;;;;;;5068514;28;20231;-69
2022/04/09 11:44:46;;;;;;;1.80;0.73;;;9.40;99.90;;;;;;5069984;28;21136;-68
2022/04/09 11:47:16;;;;;;;2.13;0.80;;;9.60;99.90;;;;;;5072009;28;20198;-70
2022/04/09 11:49:43;;;;;;;2.57;0.80;;;9.70;99.90;;;;;;5068312;28;20209;-68
2022/04/09 11:52:09;;;;;;;2.03;0.83;;;9.50;99.90;;;;;;5065419;28;20733;-70
2022/04/09 11:54:36;;;;;;;1.13;0.50;;;9.70;99.90;;;;;;5069189;28;20196;-71
2022/04/09 11:57:03;;;;;;;2.90;0.70;;;9.90;99.90;;;;;;5066266;28;20186;-68
2022/04/09 11:59:30;;;;;;;5.40;1.40;;;10.10;99.90;;;;;;5075099;28;20212;-70
2022/04/09 12:01:57;;;;;;;0.80;0.67;;;9.90;99.90;;;;;;5075364;28;20675;-68
2022/04/09 12:04:23;;;;;;;0.90;0.60;;;9.40;99.90;;;;;;5072140;28;20188;-68
2022/04/09 12:06:51;;;;;;;2.97;1.17;;;9.10;99.90;;;;;;5071791;28;20185;-70
2022/04/09 12:09:16;;;;;;;1.50;0.93;;;8.70;99.90;;;;;;5076692;28;20201;-69
2022/04/09 12:11:50;;;;;;;1.73;0.70;;;8.40;99.90;;;;;;5072158;28;20196;-69
2022/04/09 12:14:17;;;;;;;0.60;0.40;;;8.10;99.90;;;;;;5068434;28;20208;-68
2022/04/09 12:16:42;;;;;;;0.53;0.30;;;8.20;99.90;;;;;;5068210;28;20178;-69
2022/04/09 12:19:09;;;;;;;1.63;0.50;;;8.40;99.90;;;;;;5069531;28;20457;-70
2022/04/09 12:21:35;;;;;;;1.37;0.60;;;8.80;99.90;;;;;;5070142;28;20228;-68
2022/04/09 12:24:06;;;;;;;0.60;0.40;;;9.50;99.90;;;;;;5069544;28;20220;-68
2022/04/09 12:26:34;;;;;;;1.33;0.60;;;9.80;99.90;;;;;;5070622;28;20184;-68
2022/04/09 12:29:23;;;;;;;1.73;0.50;;;10.10;99.90;;;;;;5072027;28;20209;-66
2022/04/09 12:31:53;;;;;;;0.97;0.53;;;10.90;99.90;;;;;;5064370;28;20289;-68
2022/04/09 12:34:20;;;;;;;2.07;0.90;;;11.30;99.90;;;;;;5067454;28;20616;-68
2022/04/09 12:37:04;;;;;;;1.73;0.67;;;11.30;99.90;;;;;;5064595;28;20265;-67
2022/04/09 12:39:33;;;;;;;1.13;0.53;;;10.90;99.90;;;;;;5069053;28;20213;-68
2022/04/09 12:42:00;;;;;;;0.90;0.50;;;10.50;99.90;;;;;;5067294;28;20209;-70
2022/04/09 12:44:31;;;;;;;1.17;0.57;;;10.50;99.90;;;;;;5074245;28;20181;-68
2022/04/09 12:46:58;;;;;;;1.57;0.63;;;10.50;99.90;;;;;;5072460;28;20212;-68
2022/04/09 12:49:38;;;;;;;3.37;1.43;;;10.20;99.90;;;;;;5067832;28;20204;-69
2022/04/09 12:52:06;;;;;;;1.70;0.80;;;10.00;99.90;;;;;;5075059;28;20551;-68
2022/04/09 12:54:32;;;;;;;0.70;0.60;;;9.50;99.90;;;;;;5074521;28;20192;-67